sensor_id;sensor_type;location;lat;lon;timestamp;P1;durP1;ratioP1;P2;durP2;ratioP2
75912;SDS011;64592;52.168;21.040;2023-06-22T00:00:01;29.30;;;21.88;;
75912;SDS011;64592;52.168;21.040;2023-06-22T00:05:08;28.13;;;22.63;;
75912;SDS011;64592;52.168;21.040;2023-06-22T00:10:10;29.33;;;23.05;;
75912;SDS011;64592;52.168;21.040;2023-06-22T00:15:13;27.77;;;21.58;;
75912;SDS011;64592;52.168;21.040;2023-06-22T00:20:15;25.40;;;21.50;;
75912;SDS011;64592;52.168;21.040;2023-06-22T00:25:18;27.73;;;21.73;;
75912;SDS011;64592;52.168;21.040;2023-06-22T00:30:21;25.48;;;21.42;;
75912;SDS011;64592;52.168;21.040;2023-06-22T00:35:22;29.52;;;22.45;;
75912;SDS011;64592;52.168;21.040;2023-06-22T00:40:29;28.90;;;23.85;;
75912;SDS011;64592;52.168;21.040;2023-06-22T00:45:32;29.85;;;23.38;;
75912;SDS011;64592;52.168;21.040;2023-06-22T00:50:34;23.00;;;19.98;;
75912;SDS011;64592;52.168;21.040;2023-06-22T00:55:37;26.90;;;20.48;;
75912;SDS011;64592;52.168;21.040;2023-06-22T01:00:43;25.38;;;20.50;;
75912;SDS011;64592;52.168;21.040;2023-06-22T01:05:45;24.35;;;20.48;;
75912;SDS011;64592;52.168;21.040;2023-06-22T01:10:50;25.88;;;20.88;;
75912;SDS011;64592;52.168;21.040;2023-06-22T01:15:57;26.50;;;20.88;;
75912;SDS011;64592;52.168;21.040;2023-06-22T01:21:04;27.02;;;21.30;;
75912;SDS011;64592;52.168;21.040;2023-06-22T01:31:20;26.98;;;22.17;;
75912;SDS011;64592;52.168;21.040;2023-06-22T01:36:24;25.50;;;19.95;;
75912;SDS011;64592;52.168;21.040;2023-06-22T01:41:27;28.23;;;20.80;;
75912;SDS011;64592;52.168;21.040;2023-06-22T01:46:32;28.40;;;23.27;;
75912;SDS011;64592;52.168;21.040;2023-06-22T01:51:35;27.17;;;21.05;;
75912;SDS011;64592;52.168;21.040;2023-06-22T01:56:37;27.15;;;21.95;;
75912;SDS011;64592;52.168;21.040;2023-06-22T02:01:41;30.20;;;23.50;;
75912;SDS011;64592;52.168;21.040;2023-06-22T02:06:45;29.63;;;23.42;;
75912;SDS011;64592;52.168;21.040;2023-06-22T02:11:50;30.60;;;22.50;;
75912;SDS011;64592;52.168;21.040;2023-06-22T02:21:59;34.05;;;25.20;;
75912;SDS011;64592;52.168;21.040;2023-06-22T02:27:01;34.08;;;25.60;;
75912;SDS011;64592;52.168;21.040;2023-06-22T02:32:05;31.52;;;23.92;;
75912;SDS011;64592;52.168;21.040;2023-06-22T02:37:07;34.05;;;26.25;;
75912;SDS011;64592;52.168;21.040;2023-06-22T02:42:10;37.15;;;28.02;;
75912;SDS011;64592;52.168;21.040;2023-06-22T02:47:13;41.85;;;29.27;;
75912;SDS011;64592;52.168;21.040;2023-06-22T02:52:15;37.88;;;28.15;;
75912;SDS011;64592;52.168;21.040;2023-06-22T02:57:17;44.08;;;30.58;;
75912;SDS011;64592;52.168;21.040;2023-06-22T03:02:20;51.45;;;32.65;;
75912;SDS011;64592;52.168;21.040;2023-06-22T03:07:23;46.60;;;32.30;;
75912;SDS011;64592;52.168;21.040;2023-06-22T03:12:25;51.80;;;33.00;;
75912;SDS011;64592;52.168;21.040;2023-06-22T03:17:28;50.85;;;33.72;;
75912;SDS011;64592;52.168;21.040;2023-06-22T03:22:29;48.25;;;34.47;;
75912;SDS011;64592;52.168;21.040;2023-06-22T03:27:31;51.88;;;33.65;;
75912;SDS011;64592;52.168;21.040;2023-06-22T03:32:34;53.72;;;33.83;;
75912;SDS011;64592;52.168;21.040;2023-06-22T03:37:36;46.30;;;32.08;;
75912;SDS011;64592;52.168;21.040;2023-06-22T03:42:38;48.10;;;32.30;;
75912;SDS011;64592;52.168;21.040;2023-06-22T03:47:41;48.72;;;31.85;;
75912;SDS011;64592;52.168;21.040;2023-06-22T03:52:42;44.90;;;31.65;;
75912;SDS011;64592;52.168;21.040;2023-06-22T03:57:44;44.42;;;30.08;;
75912;SDS011;64592;52.168;21.040;2023-06-22T04:02:47;45.80;;;30.60;;
75912;SDS011;64592;52.168;21.040;2023-06-22T04:07:49;40.80;;;29.48;;
75912;SDS011;64592;52.168;21.040;2023-06-22T04:12:50;44.78;;;30.60;;
75912;SDS011;64592;52.168;21.040;2023-06-22T04:17:54;42.08;;;30.38;;
75912;SDS011;64592;52.168;21.040;2023-06-22T04:22:56;41.67;;;29.58;;
75912;SDS011;64592;52.168;21.040;2023-06-22T04:27:58;41.53;;;28.40;;
75912;SDS011;64592;52.168;21.040;2023-06-22T04:33:04;39.28;;;28.48;;
75912;SDS011;64592;52.168;21.040;2023-06-22T04:38:06;35.90;;;26.25;;
75912;SDS011;64592;52.168;21.040;2023-06-22T04:43:08;36.88;;;27.02;;
75912;SDS011;64592;52.168;21.040;2023-06-22T04:48:11;33.63;;;25.70;;
75912;SDS011;64592;52.168;21.040;2023-06-22T04:53:15;35.75;;;25.88;;
75912;SDS011;64592;52.168;21.040;2023-06-22T04:58:17;35.03;;;27.27;;
75912;SDS011;64592;52.168;21.040;2023-06-22T05:03:22;38.78;;;26.33;;
75912;SDS011;64592;52.168;21.040;2023-06-22T05:08:26;34.05;;;25.58;;
75912;SDS011;64592;52.168;21.040;2023-06-22T05:13:28;37.55;;;25.83;;
75912;SDS011;64592;52.168;21.040;2023-06-22T05:18:31;36.83;;;27.13;;
75912;SDS011;64592;52.168;21.040;2023-06-22T05:28:37;37.13;;;26.45;;
75912;SDS011;64592;52.168;21.040;2023-06-22T05:33:40;38.10;;;25.70;;
75912;SDS011;64592;52.168;21.040;2023-06-22T05:38:41;34.33;;;24.75;;
75912;SDS011;64592;52.168;21.040;2023-06-22T05:43:43;34.10;;;24.00;;
75912;SDS011;64592;52.168;21.040;2023-06-22T05:48:46;32.88;;;23.33;;
75912;SDS011;64592;52.168;21.040;2023-06-22T05:53:48;33.17;;;24.25;;
75912;SDS011;64592;52.168;21.040;2023-06-22T05:58:50;30.58;;;23.75;;
75912;SDS011;64592;52.168;21.040;2023-06-22T06:03:53;36.35;;;23.17;;
75912;SDS011;64592;52.168;21.040;2023-06-22T06:08:55;29.35;;;23.00;;
75912;SDS011;64592;52.168;21.040;2023-06-22T06:13:57;31.75;;;22.10;;
75912;SDS011;64592;52.168;21.040;2023-06-22T06:19:00;28.48;;;21.58;;
75912;SDS011;64592;52.168;21.040;2023-06-22T06:24:02;29.13;;;22.00;;
75912;SDS011;64592;52.168;21.040;2023-06-22T06:29:03;29.50;;;21.92;;
75912;SDS011;64592;52.168;21.040;2023-06-22T06:34:06;27.80;;;20.60;;
75912;SDS011;64592;52.168;21.040;2023-06-22T06:39:08;28.38;;;21.20;;
75912;SDS011;64592;52.168;21.040;2023-06-22T06:44:10;28.40;;;20.95;;
75912;SDS011;64592;52.168;21.040;2023-06-22T06:49:13;26.38;;;18.90;;
75912;SDS011;64592;52.168;21.040;2023-06-22T06:54:14;25.52;;;19.95;;
75912;SDS011;64592;52.168;21.040;2023-06-22T06:59:16;28.02;;;21.65;;
75912;SDS011;64592;52.168;21.040;2023-06-22T07:04:19;24.52;;;19.30;;
75912;SDS011;64592;52.168;21.040;2023-06-22T07:09:21;23.65;;;17.10;;
75912;SDS011;64592;52.168;21.040;2023-06-22T07:14:23;23.73;;;18.00;;
75912;SDS011;64592;52.168;21.040;2023-06-22T07:19:26;24.70;;;17.75;;
75912;SDS011;64592;52.168;21.040;2023-06-22T07:24:28;22.58;;;16.95;;
75912;SDS011;64592;52.168;21.040;2023-06-22T07:29:30;21.58;;;16.48;;
75912;SDS011;64592;52.168;21.040;2023-06-22T07:34:33;21.02;;;14.73;;
75912;SDS011;64592;52.168;21.040;2023-06-22T07:39:35;21.50;;;13.13;;
75912;SDS011;64592;52.168;21.040;2023-06-22T07:44:37;14.43;;;11.90;;
75912;SDS011;64592;52.168;21.040;2023-06-22T07:49:40;15.10;;;12.23;;
75912;SDS011;64592;52.168;21.040;2023-06-22T07:54:42;16.02;;;10.40;;
75912;SDS011;64592;52.168;21.040;2023-06-22T07:59:44;12.50;;;9.45;;
75912;SDS011;64592;52.168;21.040;2023-06-22T08:04:47;12.45;;;8.40;;
75912;SDS011;64592;52.168;21.040;2023-06-22T08:09:48;11.05;;;8.20;;
75912;SDS011;64592;52.168;21.040;2023-06-22T08:14:50;10.93;;;7.90;;
75912;SDS011;64592;52.168;21.040;2023-06-22T08:19:53;10.52;;;7.30;;
75912;SDS011;64592;52.168;21.040;2023-06-22T08:24:55;11.15;;;8.02;;
75912;SDS011;64592;52.168;21.040;2023-06-22T08:29:56;10.23;;;7.40;;
75912;SDS011;64592;52.168;21.040;2023-06-22T08:35:00;12.25;;;8.00;;
75912;SDS011;64592;52.168;21.040;2023-06-22T08:40:03;11.27;;;7.53;;
75912;SDS011;64592;52.168;21.040;2023-06-22T08:45:08;8.70;;;6.82;;
75912;SDS011;64592;52.168;21.040;2023-06-22T08:50:12;8.30;;;6.30;;
75912;SDS011;64592;52.168;21.040;2023-06-22T08:55:14;7.65;;;6.28;;
75912;SDS011;64592;52.168;21.040;2023-06-22T09:00:16;7.22;;;5.97;;
75912;SDS011;64592;52.168;21.040;2023-06-22T09:05:21;11.25;;;5.97;;
75912;SDS011;64592;52.168;21.040;2023-06-22T09:10:23;8.63;;;5.63;;
75912;SDS011;64592;52.168;21.040;2023-06-22T09:15:25;6.90;;;5.15;;
75912;SDS011;64592;52.168;21.040;2023-06-22T09:20:28;6.45;;;4.82;;
75912;SDS011;64592;52.168;21.040;2023-06-22T09:25:29;14.82;;;5.38;;
75912;SDS011;64592;52.168;21.040;2023-06-22T09:30:31;5.85;;;4.30;;
75912;SDS011;64592;52.168;21.040;2023-06-22T09:35:34;9.57;;;4.60;;
75912;SDS011;64592;52.168;21.040;2023-06-22T09:40:36;6.10;;;4.88;;
75912;SDS011;64592;52.168;21.040;2023-06-22T09:45:40;5.05;;;4.00;;
75912;SDS011;64592;52.168;21.040;2023-06-22T09:50:43;7.47;;;4.72;;
75912;SDS011;64592;52.168;21.040;2023-06-22T09:55:44;5.80;;;3.90;;
75912;SDS011;64592;52.168;21.040;2023-06-22T10:00:46;7.32;;;4.95;;
75912;SDS011;64592;52.168;21.040;2023-06-22T10:05:49;6.95;;;4.97;;
75912;SDS011;64592;52.168;21.040;2023-06-22T10:10:51;7.90;;;4.47;;
75912;SDS011;64592;52.168;21.040;2023-06-22T10:15:52;5.78;;;4.03;;
75912;SDS011;64592;52.168;21.040;2023-06-22T10:20:55;7.18;;;4.50;;
75912;SDS011;64592;52.168;21.040;2023-06-22T10:25:57;8.27;;;4.30;;
75912;SDS011;64592;52.168;21.040;2023-06-22T10:30:59;7.15;;;4.68;;
75912;SDS011;64592;52.168;21.040;2023-06-22T10:36:02;9.93;;;4.95;;
75912;SDS011;64592;52.168;21.040;2023-06-22T10:41:04;11.93;;;4.53;;
75912;SDS011;64592;52.168;21.040;2023-06-22T10:46:06;5.72;;;4.28;;
75912;SDS011;64592;52.168;21.040;2023-06-22T10:51:09;10.07;;;4.70;;
75912;SDS011;64592;52.168;21.040;2023-06-22T10:56:11;6.68;;;4.47;;
75912;SDS011;64592;52.168;21.040;2023-06-22T11:01:13;5.70;;;4.65;;
75912;SDS011;64592;52.168;21.040;2023-06-22T11:06:16;8.50;;;5.00;;
75912;SDS011;64592;52.168;21.040;2023-06-22T11:11:17;9.05;;;4.40;;
75912;SDS011;64592;52.168;21.040;2023-06-22T11:16:19;6.47;;;4.25;;
75912;SDS011;64592;52.168;21.040;2023-06-22T11:21:22;5.90;;;4.78;;
75912;SDS011;64592;52.168;21.040;2023-06-22T11:26:24;7.80;;;4.90;;
75912;SDS011;64592;52.168;21.040;2023-06-22T11:31:27;7.93;;;4.60;;
75912;SDS011;64592;52.168;21.040;2023-06-22T11:36:30;5.75;;;4.45;;
75912;SDS011;64592;52.168;21.040;2023-06-22T11:41:33;6.95;;;4.28;;
75912;SDS011;64592;52.168;21.040;2023-06-22T11:46:34;7.30;;;4.30;;
75912;SDS011;64592;52.168;21.040;2023-06-22T11:51:37;7.50;;;4.55;;
75912;SDS011;64592;52.168;21.040;2023-06-22T11:56:39;7.25;;;5.05;;
75912;SDS011;64592;52.168;21.040;2023-06-22T12:01:41;5.60;;;4.22;;
75912;SDS011;64592;52.168;21.040;2023-06-22T12:06:44;7.63;;;4.47;;
75912;SDS011;64592;52.168;21.040;2023-06-22T12:11:45;7.30;;;4.40;;
75912;SDS011;64592;52.168;21.040;2023-06-22T12:16:47;5.93;;;4.72;;
75912;SDS011;64592;52.168;21.040;2023-06-22T12:21:50;6.35;;;4.60;;
75912;SDS011;64592;52.168;21.040;2023-06-22T12:26:52;6.30;;;3.85;;
75912;SDS011;64592;52.168;21.040;2023-06-22T12:31:54;9.52;;;4.50;;
75912;SDS011;64592;52.168;21.040;2023-06-22T12:36:57;9.52;;;4.38;;
75912;SDS011;64592;52.168;21.040;2023-06-22T12:41:58;5.85;;;4.30;;
75912;SDS011;64592;52.168;21.040;2023-06-22T12:47:00;8.77;;;4.72;;
75912;SDS011;64592;52.168;21.040;2023-06-22T12:52:04;7.95;;;4.55;;
75912;SDS011;64592;52.168;21.040;2023-06-22T12:57:10;8.43;;;4.10;;
75912;SDS011;64592;52.168;21.040;2023-06-22T13:02:12;5.75;;;4.40;;
75912;SDS011;64592;52.168;21.040;2023-06-22T13:07:15;6.75;;;4.10;;
75912;SDS011;64592;52.168;21.040;2023-06-22T13:12:16;5.90;;;4.65;;
75912;SDS011;64592;52.168;21.040;2023-06-22T13:17:18;7.05;;;3.90;;
75912;SDS011;64592;52.168;21.040;2023-06-22T13:22:28;6.20;;;4.07;;
75912;SDS011;64592;52.168;21.040;2023-06-22T13:27:31;5.15;;;4.03;;
75912;SDS011;64592;52.168;21.040;2023-06-22T13:32:32;5.43;;;4.18;;
75912;SDS011;64592;52.168;21.040;2023-06-22T13:37:36;8.63;;;4.63;;
75912;SDS011;64592;52.168;21.040;2023-06-22T13:42:38;8.02;;;4.80;;
75912;SDS011;64592;52.168;21.040;2023-06-22T13:47:39;5.95;;;4.25;;
75912;SDS011;64592;52.168;21.040;2023-06-22T13:52:42;5.93;;;3.95;;
75912;SDS011;64592;52.168;21.040;2023-06-22T13:57:44;6.78;;;4.45;;
75912;SDS011;64592;52.168;21.040;2023-06-22T14:02:46;6.32;;;4.10;;
75912;SDS011;64592;52.168;21.040;2023-06-22T14:07:49;7.22;;;4.90;;
75912;SDS011;64592;52.168;21.040;2023-06-22T14:12:50;7.53;;;4.32;;
75912;SDS011;64592;52.168;21.040;2023-06-22T14:17:53;5.30;;;3.80;;
75912;SDS011;64592;52.168;21.040;2023-06-22T14:22:56;7.32;;;4.10;;
75912;SDS011;64592;52.168;21.040;2023-06-22T14:27:58;6.82;;;4.40;;
75912;SDS011;64592;52.168;21.040;2023-06-22T14:32:59;5.40;;;3.92;;
75912;SDS011;64592;52.168;21.040;2023-06-22T14:38:02;6.97;;;4.13;;
75912;SDS011;64592;52.168;21.040;2023-06-22T14:43:04;5.60;;;4.28;;
75912;SDS011;64592;52.168;21.040;2023-06-22T14:48:06;4.93;;;4.40;;
75912;SDS011;64592;52.168;21.040;2023-06-22T14:53:09;6.05;;;4.13;;
75912;SDS011;64592;52.168;21.040;2023-06-22T14:58:10;5.07;;;4.03;;
75912;SDS011;64592;52.168;21.040;2023-06-22T15:03:12;5.55;;;4.45;;
75912;SDS011;64592;52.168;21.040;2023-06-22T15:08:19;6.65;;;4.88;;
75912;SDS011;64592;52.168;21.040;2023-06-22T15:13:21;6.97;;;4.80;;
75912;SDS011;64592;52.168;21.040;2023-06-22T15:18:23;5.30;;;4.43;;
75912;SDS011;64592;52.168;21.040;2023-06-22T15:23:26;6.88;;;4.80;;
75912;SDS011;64592;52.168;21.040;2023-06-22T15:33:32;6.47;;;4.63;;
75912;SDS011;64592;52.168;21.040;2023-06-22T15:38:35;6.03;;;4.22;;
75912;SDS011;64592;52.168;21.040;2023-06-22T15:43:36;7.10;;;5.18;;
75912;SDS011;64592;52.168;21.040;2023-06-22T15:48:38;7.93;;;5.20;;
75912;SDS011;64592;52.168;21.040;2023-06-22T15:53:41;5.55;;;5.00;;
75912;SDS011;64592;52.168;21.040;2023-06-22T15:58:43;7.13;;;5.47;;
75912;SDS011;64592;52.168;21.040;2023-06-22T16:03:44;10.77;;;5.10;;
75912;SDS011;64592;52.168;21.040;2023-06-22T16:08:47;6.53;;;4.68;;
75912;SDS011;64592;52.168;21.040;2023-06-22T16:13:49;6.75;;;4.85;;
75912;SDS011;64592;52.168;21.040;2023-06-22T16:18:51;7.90;;;4.75;;
75912;SDS011;64592;52.168;21.040;2023-06-22T16:23:54;7.00;;;4.90;;
75912;SDS011;64592;52.168;21.040;2023-06-22T16:28:55;8.85;;;5.18;;
75912;SDS011;64592;52.168;21.040;2023-06-22T16:33:57;11.40;;;4.88;;
75912;SDS011;64592;52.168;21.040;2023-06-22T16:39:00;6.00;;;4.82;;
75912;SDS011;64592;52.168;21.040;2023-06-22T16:49:06;7.57;;;5.20;;
75912;SDS011;64592;52.168;21.040;2023-06-22T16:54:09;5.93;;;4.53;;
75912;SDS011;64592;52.168;21.040;2023-06-22T16:59:11;8.32;;;4.75;;
75912;SDS011;64592;52.168;21.040;2023-06-22T17:04:13;6.95;;;4.72;;
75912;SDS011;64592;52.168;21.040;2023-06-22T17:09:21;8.50;;;5.25;;
75912;SDS011;64592;52.168;21.040;2023-06-22T17:14:23;7.60;;;5.43;;
75912;SDS011;64592;52.168;21.040;2023-06-22T17:19:25;6.20;;;4.70;;
75912;SDS011;64592;52.168;21.040;2023-06-22T17:24:28;5.55;;;4.85;;
75912;SDS011;64592;52.168;21.040;2023-06-22T17:29:31;6.85;;;5.35;;
75912;SDS011;64592;52.168;21.040;2023-06-22T17:34:34;6.05;;;5.22;;
75912;SDS011;64592;52.168;21.040;2023-06-22T17:39:38;5.70;;;4.97;;
75912;SDS011;64592;52.168;21.040;2023-06-22T17:44:42;6.55;;;5.38;;
75912;SDS011;64592;52.168;21.040;2023-06-22T17:49:43;7.20;;;5.60;;
75912;SDS011;64592;52.168;21.040;2023-06-22T17:54:46;9.57;;;5.90;;
75912;SDS011;64592;52.168;21.040;2023-06-22T17:59:51;9.75;;;5.22;;
75912;SDS011;64592;52.168;21.040;2023-06-22T18:04:56;7.20;;;5.60;;
75912;SDS011;64592;52.168;21.040;2023-06-22T18:15:01;9.27;;;4.97;;
75912;SDS011;64592;52.168;21.040;2023-06-22T18:20:04;9.55;;;5.03;;
75912;SDS011;64592;52.168;21.040;2023-06-22T18:25:11;6.55;;;4.75;;
75912;SDS011;64592;52.168;21.040;2023-06-22T18:30:14;6.93;;;4.88;;
75912;SDS011;64592;52.168;21.040;2023-06-22T18:35:17;6.70;;;5.15;;
75912;SDS011;64592;52.168;21.040;2023-06-22T18:40:20;7.88;;;5.45;;
75912;SDS011;64592;52.168;21.040;2023-06-22T18:45:23;7.88;;;5.05;;
75912;SDS011;64592;52.168;21.040;2023-06-22T18:50:35;7.82;;;5.70;;
75912;SDS011;64592;52.168;21.040;2023-06-22T18:55:41;10.20;;;5.35;;
75912;SDS011;64592;52.168;21.040;2023-06-22T19:00:44;9.10;;;5.57;;
75912;SDS011;64592;52.168;21.040;2023-06-22T19:05:46;7.85;;;5.43;;
75912;SDS011;64592;52.168;21.040;2023-06-22T19:10:49;7.90;;;5.72;;
75912;SDS011;64592;52.168;21.040;2023-06-22T19:15:52;9.43;;;6.15;;
75912;SDS011;64592;52.168;21.040;2023-06-22T19:20:58;10.05;;;6.10;;
75912;SDS011;64592;52.168;21.040;2023-06-22T19:26:04;8.10;;;5.97;;
75912;SDS011;64592;52.168;21.040;2023-06-22T19:31:08;7.70;;;5.60;;
75912;SDS011;64592;52.168;21.040;2023-06-22T19:36:10;8.43;;;5.55;;
75912;SDS011;64592;52.168;21.040;2023-06-22T19:41:13;9.15;;;5.35;;
75912;SDS011;64592;52.168;21.040;2023-06-22T19:46:15;8.23;;;6.15;;
75912;SDS011;64592;52.168;21.040;2023-06-22T19:51:17;7.75;;;6.18;;
75912;SDS011;64592;52.168;21.040;2023-06-22T19:56:20;8.20;;;5.78;;
75912;SDS011;64592;52.168;21.040;2023-06-22T20:01:22;13.10;;;7.43;;
75912;SDS011;64592;52.168;21.040;2023-06-22T20:06:23;9.35;;;6.32;;
75912;SDS011;64592;52.168;21.040;2023-06-22T20:11:28;8.88;;;6.28;;
75912;SDS011;64592;52.168;21.040;2023-06-22T20:16:31;9.07;;;6.10;;
75912;SDS011;64592;52.168;21.040;2023-06-22T20:21:46;9.43;;;6.43;;
75912;SDS011;64592;52.168;21.040;2023-06-22T20:26:49;9.45;;;6.80;;
75912;SDS011;64592;52.168;21.040;2023-06-22T20:32:01;11.00;;;6.82;;
75912;SDS011;64592;52.168;21.040;2023-06-22T20:37:04;10.50;;;6.03;;
75912;SDS011;64592;52.168;21.040;2023-06-22T20:42:09;8.32;;;6.70;;
75912;SDS011;64592;52.168;21.040;2023-06-22T20:47:12;9.70;;;7.10;;
75912;SDS011;64592;52.168;21.040;2023-06-22T20:52:13;10.68;;;7.00;;
75912;SDS011;64592;52.168;21.040;2023-06-22T20:57:18;9.88;;;6.65;;
75912;SDS011;64592;52.168;21.040;2023-06-22T21:02:20;12.68;;;7.05;;
75912;SDS011;64592;52.168;21.040;2023-06-22T21:07:23;11.95;;;7.65;;
75912;SDS011;64592;52.168;21.040;2023-06-22T21:12:26;11.63;;;7.30;;
75912;SDS011;64592;52.168;21.040;2023-06-22T21:17:28;9.80;;;6.90;;
75912;SDS011;64592;52.168;21.040;2023-06-22T21:22:30;12.77;;;7.38;;
75912;SDS011;64592;52.168;21.040;2023-06-22T21:27:34;10.70;;;6.60;;
75912;SDS011;64592;52.168;21.040;2023-06-22T21:32:36;18.33;;;9.00;;
75912;SDS011;64592;52.168;21.040;2023-06-22T21:37:38;11.50;;;7.75;;
75912;SDS011;64592;52.168;21.040;2023-06-22T21:42:43;15.18;;;6.97;;
75912;SDS011;64592;52.168;21.040;2023-06-22T21:47:44;15.38;;;7.95;;
75912;SDS011;64592;52.168;21.040;2023-06-22T21:52:46;7.90;;;6.53;;
75912;SDS011;64592;52.168;21.040;2023-06-22T21:57:49;9.77;;;6.70;;
75912;SDS011;64592;52.168;21.040;2023-06-22T22:02:51;13.40;;;7.10;;
75912;SDS011;64592;52.168;21.040;2023-06-22T22:07:52;10.13;;;5.75;;
75912;SDS011;64592;52.168;21.040;2023-06-22T22:12:56;10.10;;;6.22;;
75912;SDS011;64592;52.168;21.040;2023-06-22T22:17:58;8.40;;;5.57;;
75912;SDS011;64592;52.168;21.040;2023-06-22T22:23:04;8.88;;;6.15;;
75912;SDS011;64592;52.168;21.040;2023-06-22T22:28:07;11.27;;;6.88;;
75912;SDS011;64592;52.168;21.040;2023-06-22T22:33:08;9.13;;;6.05;;
75912;SDS011;64592;52.168;21.040;2023-06-22T22:38:10;9.93;;;6.15;;
75912;SDS011;64592;52.168;21.040;2023-06-22T22:43:13;9.48;;;6.97;;
75912;SDS011;64592;52.168;21.040;2023-06-22T22:48:15;11.98;;;5.72;;
75912;SDS011;64592;52.168;21.040;2023-06-22T22:53:17;9.10;;;5.85;;
75912;SDS011;64592;52.168;21.040;2023-06-22T22:58:20;12.77;;;6.28;;
75912;SDS011;64592;52.168;21.040;2023-06-22T23:03:22;9.38;;;6.22;;
75912;SDS011;64592;52.168;21.040;2023-06-22T23:08:23;11.57;;;6.68;;
75912;SDS011;64592;52.168;21.040;2023-06-22T23:13:27;7.95;;;5.88;;
75912;SDS011;64592;52.168;21.040;2023-06-22T23:18:29;9.45;;;6.32;;
75912;SDS011;64592;52.168;21.040;2023-06-22T23:23:32;8.85;;;6.20;;
75912;SDS011;64592;52.168;21.040;2023-06-22T23:28:36;8.18;;;5.97;;
75912;SDS011;64592;52.168;21.040;2023-06-22T23:33:37;9.48;;;6.78;;
75912;SDS011;64592;52.168;21.040;2023-06-22T23:38:40;9.07;;;6.93;;
75912;SDS011;64592;52.168;21.040;2023-06-22T23:43:43;10.13;;;6.78;;
75912;SDS011;64592;52.168;21.040;2023-06-22T23:48:44;10.80;;;6.70;;
75912;SDS011;64592;52.168;21.040;2023-06-22T23:53:47;10.00;;;7.07;;
75912;SDS011;64592;52.168;21.040;2023-06-22T23:58:50;10.30;;;6.75;;
